sensor_id;sensor_type;location;lat;lon;timestamp;temperature;humidity
26053;DHT22;13826;51.186;4.450;2023-03-20T00:00:33;7.30;99.90
26053;DHT22;13826;51.186;4.450;2023-03-20T00:02:59;7.20;99.90
26053;DHT22;13826;51.186;4.450;2023-03-20T00:05:25;7.20;99.90
26053;DHT22;13826;51.186;4.450;2023-03-20T00:07:52;7.20;99.90
26053;DHT22;13826;51.186;4.450;2023-03-20T00:10:19;7.20;99.90
26053;DHT22;13826;51.186;4.450;2023-03-20T00:12:46;7.30;99.90
26053;DHT22;13826;51.186;4.450;2023-03-20T00:17:44;7.40;99.90
26053;DHT22;13826;51.186;4.450;2023-03-20T00:20:13;7.40;99.90
26053;DHT22;13826;51.186;4.450;2023-03-20T00:22:39;7.40;99.90
26053;DHT22;13826;51.186;4.450;2023-03-20T00:25:05;7.20;99.90
26053;DHT22;13826;51.186;4.450;2023-03-20T00:27:31;7.30;99.90
26053;DHT22;13826;51.186;4.450;2023-03-20T00:29:56;7.30;99.90
26053;DHT22;13826;51.186;4.450;2023-03-20T00:32:22;7.30;99.90
26053;DHT22;13826;51.186;4.450;2023-03-20T00:34:47;7.30;99.90
26053;DHT22;13826;51.186;4.450;2023-03-20T00:37:13;7.20;99.90
26053;DHT22;13826;51.186;4.450;2023-03-20T00:39:40;7.30;99.90
26053;DHT22;13826;51.186;4.450;2023-03-20T00:42:06;7.10;99.90
26053;DHT22;13826;51.186;4.450;2023-03-20T00:44:32;7.00;99.90
26053;DHT22;13826;51.186;4.450;2023-03-20T00:46:59;7.00;99.90
26053;DHT22;13826;51.186;4.450;2023-03-20T00:49:30;7.00;99.90
26053;DHT22;13826;51.186;4.450;2023-03-20T00:51:56;7.20;99.90
26053;DHT22;13826;51.186;4.450;2023-03-20T00:54:22;7.50;99.90
26053;DHT22;13826;51.186;4.450;2023-03-20T00:56:50;7.70;99.90
26053;DHT22;13826;51.186;4.450;2023-03-20T00:59:19;7.60;99.90
26053;DHT22;13826;51.186;4.450;2023-03-20T01:01:45;7.40;99.90
26053;DHT22;13826;51.186;4.450;2023-03-20T01:04:15;7.40;99.90
26053;DHT22;13826;51.186;4.450;2023-03-20T01:06:42;7.30;99.90
26053;DHT22;13826;51.186;4.450;2023-03-20T01:09:07;7.30;99.90
26053;DHT22;13826;51.186;4.450;2023-03-20T01:11:33;7.30;99.90
26053;DHT22;13826;51.186;4.450;2023-03-20T01:13:59;7.30;99.90
26053;DHT22;13826;51.186;4.450;2023-03-20T01:16:25;7.20;99.90
26053;DHT22;13826;51.186;4.450;2023-03-20T01:18:51;7.30;99.90
26053;DHT22;13826;51.186;4.450;2023-03-20T01:21:17;7.10;99.90
26053;DHT22;13826;51.186;4.450;2023-03-20T01:23:43;7.20;99.90
26053;DHT22;13826;51.186;4.450;2023-03-20T01:26:23;7.20;99.90
26053;DHT22;13826;51.186;4.450;2023-03-20T01:28:49;7.10;99.90
26053;DHT22;13826;51.186;4.450;2023-03-20T01:31:15;7.00;99.90
26053;DHT22;13826;51.186;4.450;2023-03-20T01:33:41;7.10;99.90
26053;DHT22;13826;51.186;4.450;2023-03-20T01:36:08;7.10;99.90
26053;DHT22;13826;51.186;4.450;2023-03-20T01:38:34;7.10;99.90
26053;DHT22;13826;51.186;4.450;2023-03-20T01:43:34;7.10;99.90
26053;DHT22;13826;51.186;4.450;2023-03-20T01:46:45;7.00;99.90
26053;DHT22;13826;51.186;4.450;2023-03-20T01:51:18;6.90;99.90
26053;DHT22;13826;51.186;4.450;2023-03-20T01:53:44;6.80;99.90
26053;DHT22;13826;51.186;4.450;2023-03-20T01:56:11;6.80;99.90
26053;DHT22;13826;51.186;4.450;2023-03-20T01:58:40;6.80;99.90
26053;DHT22;13826;51.186;4.450;2023-03-20T02:01:06;6.80;99.90
26053;DHT22;13826;51.186;4.450;2023-03-20T02:03:33;6.80;99.90
26053;DHT22;13826;51.186;4.450;2023-03-20T02:05:59;6.90;99.90
26053;DHT22;13826;51.186;4.450;2023-03-20T02:08:26;7.00;99.90
26053;DHT22;13826;51.186;4.450;2023-03-20T02:10:51;7.10;99.90
26053;DHT22;13826;51.186;4.450;2023-03-20T02:13:18;7.30;99.90
26053;DHT22;13826;51.186;4.450;2023-03-20T02:15:57;7.30;99.90
26053;DHT22;13826;51.186;4.450;2023-03-20T02:18:23;7.30;99.90
26053;DHT22;13826;51.186;4.450;2023-03-20T02:38:53;7.20;99.90
26053;DHT22;13826;51.186;4.450;2023-03-20T02:41:31;7.10;99.90
26053;DHT22;13826;51.186;4.450;2023-03-20T02:46:46;7.20;99.90
26053;DHT22;13826;51.186;4.450;2023-03-20T02:49:20;7.40;99.90
26053;DHT22;13826;51.186;4.450;2023-03-20T02:52:04;7.50;99.90
26053;DHT22;13826;51.186;4.450;2023-03-20T02:54:42;7.60;99.90
26053;DHT22;13826;51.186;4.450;2023-03-20T02:57:13;7.50;99.90
26053;DHT22;13826;51.186;4.450;2023-03-20T02:59:54;7.40;99.90
26053;DHT22;13826;51.186;4.450;2023-03-20T03:04:51;7.40;99.90
26053;DHT22;13826;51.186;4.450;2023-03-20T03:07:18;7.40;99.90
26053;DHT22;13826;51.186;4.450;2023-03-20T03:10:07;7.40;99.90
26053;DHT22;13826;51.186;4.450;2023-03-20T03:12:33;7.30;99.90
26053;DHT22;13826;51.186;4.450;2023-03-20T03:15:00;7.30;99.90
26053;DHT22;13826;51.186;4.450;2023-03-20T03:17:27;7.30;99.90
26053;DHT22;13826;51.186;4.450;2023-03-20T03:19:58;7.30;99.90
26053;DHT22;13826;51.186;4.450;2023-03-20T03:22:26;7.30;99.90
26053;DHT22;13826;51.186;4.450;2023-03-20T03:24:52;7.40;99.90
26053;DHT22;13826;51.186;4.450;2023-03-20T03:27:22;7.30;99.90
26053;DHT22;13826;51.186;4.450;2023-03-20T03:29:57;7.30;99.90
26053;DHT22;13826;51.186;4.450;2023-03-20T03:32:25;7.30;99.90
26053;DHT22;13826;51.186;4.450;2023-03-20T03:34:51;7.40;99.90
26053;DHT22;13826;51.186;4.450;2023-03-20T03:39:53;7.50;99.90
26053;DHT22;13826;51.186;4.450;2023-03-20T03:42:31;7.50;99.90
26053;DHT22;13826;51.186;4.450;2023-03-20T03:45:02;7.70;99.90
26053;DHT22;13826;51.186;4.450;2023-03-20T03:47:41;7.60;99.90
26053;DHT22;13826;51.186;4.450;2023-03-20T03:50:30;7.60;99.90
26053;DHT22;13826;51.186;4.450;2023-03-20T03:52:55;7.30;99.90
26053;DHT22;13826;51.186;4.450;2023-03-20T03:55:24;7.30;99.90
26053;DHT22;13826;51.186;4.450;2023-03-20T03:57:57;7.40;99.90
26053;DHT22;13826;51.186;4.450;2023-03-20T04:00:25;7.50;99.90
26053;DHT22;13826;51.186;4.450;2023-03-20T04:02:55;7.50;99.90
26053;DHT22;13826;51.186;4.450;2023-03-20T04:05:21;7.50;99.90
26053;DHT22;13826;51.186;4.450;2023-03-20T04:07:52;7.40;99.90
26053;DHT22;13826;51.186;4.450;2023-03-20T04:10:18;7.50;99.90
26053;DHT22;13826;51.186;4.450;2023-03-20T04:12:43;7.50;99.90
26053;DHT22;13826;51.186;4.450;2023-03-20T04:15:10;7.50;99.90
26053;DHT22;13826;51.186;4.450;2023-03-20T04:17:35;7.50;99.90
26053;DHT22;13826;51.186;4.450;2023-03-20T04:20:01;7.50;99.90
26053;DHT22;13826;51.186;4.450;2023-03-20T04:22:26;7.70;99.90
26053;DHT22;13826;51.186;4.450;2023-03-20T04:24:52;7.60;99.90
26053;DHT22;13826;51.186;4.450;2023-03-20T04:27:18;7.50;99.90
26053;DHT22;13826;51.186;4.450;2023-03-20T04:29:43;7.60;99.90
26053;DHT22;13826;51.186;4.450;2023-03-20T04:32:09;7.60;99.90
26053;DHT22;13826;51.186;4.450;2023-03-20T04:34:35;7.60;99.90
26053;DHT22;13826;51.186;4.450;2023-03-20T04:37:00;7.60;99.90
26053;DHT22;13826;51.186;4.450;2023-03-20T04:39:26;7.60;99.90
26053;DHT22;13826;51.186;4.450;2023-03-20T04:41:52;7.70;99.90
26053;DHT22;13826;51.186;4.450;2023-03-20T04:44:17;7.70;99.90
26053;DHT22;13826;51.186;4.450;2023-03-20T04:46:43;7.70;99.90
26053;DHT22;13826;51.186;4.450;2023-03-20T04:49:08;7.60;99.90
26053;DHT22;13826;51.186;4.450;2023-03-20T04:51:34;7.50;99.90
26053;DHT22;13826;51.186;4.450;2023-03-20T04:53:59;7.50;99.90
26053;DHT22;13826;51.186;4.450;2023-03-20T04:56:25;7.60;99.90
26053;DHT22;13826;51.186;4.450;2023-03-20T04:58:50;7.60;99.90
26053;DHT22;13826;51.186;4.450;2023-03-20T05:01:16;7.60;99.90
26053;DHT22;13826;51.186;4.450;2023-03-20T05:03:42;7.60;99.90
26053;DHT22;13826;51.186;4.450;2023-03-20T05:06:08;7.50;99.90
26053;DHT22;13826;51.186;4.450;2023-03-20T05:08:33;7.40;99.90
26053;DHT22;13826;51.186;4.450;2023-03-20T05:10:59;7.50;99.90
26053;DHT22;13826;51.186;4.450;2023-03-20T05:13:25;7.40;99.90
26053;DHT22;13826;51.186;4.450;2023-03-20T05:15:50;7.50;99.90
26053;DHT22;13826;51.186;4.450;2023-03-20T05:18:16;7.60;99.90
26053;DHT22;13826;51.186;4.450;2023-03-20T05:20:41;7.70;99.90
26053;DHT22;13826;51.186;4.450;2023-03-20T05:23:07;7.60;99.90
26053;DHT22;13826;51.186;4.450;2023-03-20T05:25:32;7.70;99.90
26053;DHT22;13826;51.186;4.450;2023-03-20T05:27:58;7.80;99.90
26053;DHT22;13826;51.186;4.450;2023-03-20T05:30:23;7.80;99.90
26053;DHT22;13826;51.186;4.450;2023-03-20T05:32:50;7.70;99.90
26053;DHT22;13826;51.186;4.450;2023-03-20T05:35:16;7.70;99.90
26053;DHT22;13826;51.186;4.450;2023-03-20T05:37:42;7.70;99.90
26053;DHT22;13826;51.186;4.450;2023-03-20T05:40:09;7.70;99.90
26053;DHT22;13826;51.186;4.450;2023-03-20T05:42:35;7.70;99.90
26053;DHT22;13826;51.186;4.450;2023-03-20T05:45:00;7.80;99.90
26053;DHT22;13826;51.186;4.450;2023-03-20T05:47:26;7.90;99.90
26053;DHT22;13826;51.186;4.450;2023-03-20T05:49:52;7.90;99.90
26053;DHT22;13826;51.186;4.450;2023-03-20T05:52:17;7.90;99.90
26053;DHT22;13826;51.186;4.450;2023-03-20T05:54:43;7.70;99.90
26053;DHT22;13826;51.186;4.450;2023-03-20T05:57:08;7.80;99.90
26053;DHT22;13826;51.186;4.450;2023-03-20T05:59:34;7.80;99.90
26053;DHT22;13826;51.186;4.450;2023-03-20T06:01:59;7.80;99.90
26053;DHT22;13826;51.186;4.450;2023-03-20T06:04:25;7.80;99.90
26053;DHT22;13826;51.186;4.450;2023-03-20T06:06:51;7.70;99.90
26053;DHT22;13826;51.186;4.450;2023-03-20T06:09:16;7.80;99.90
26053;DHT22;13826;51.186;4.450;2023-03-20T06:11:42;7.80;99.90
26053;DHT22;13826;51.186;4.450;2023-03-20T06:14:07;7.80;99.90
26053;DHT22;13826;51.186;4.450;2023-03-20T06:16:33;7.90;99.90
26053;DHT22;13826;51.186;4.450;2023-03-20T06:18:58;8.10;99.90
26053;DHT22;13826;51.186;4.450;2023-03-20T06:21:24;8.00;99.90
26053;DHT22;13826;51.186;4.450;2023-03-20T06:23:50;8.10;99.90
26053;DHT22;13826;51.186;4.450;2023-03-20T06:26:16;8.10;99.90
26053;DHT22;13826;51.186;4.450;2023-03-20T06:28:41;8.20;99.90
26053;DHT22;13826;51.186;4.450;2023-03-20T06:31:07;8.20;99.90
26053;DHT22;13826;51.186;4.450;2023-03-20T06:33:34;8.10;99.90
26053;DHT22;13826;51.186;4.450;2023-03-20T06:35:59;8.10;99.90
26053;DHT22;13826;51.186;4.450;2023-03-20T06:38:25;8.20;99.90
26053;DHT22;13826;51.186;4.450;2023-03-20T06:40:50;8.30;99.90
26053;DHT22;13826;51.186;4.450;2023-03-20T06:43:16;8.30;99.90
26053;DHT22;13826;51.186;4.450;2023-03-20T06:45:41;8.30;99.90
26053;DHT22;13826;51.186;4.450;2023-03-20T06:48:07;8.20;99.90
26053;DHT22;13826;51.186;4.450;2023-03-20T06:50:33;8.20;99.90
26053;DHT22;13826;51.186;4.450;2023-03-20T06:52:58;8.30;99.90
26053;DHT22;13826;51.186;4.450;2023-03-20T06:55:24;8.50;99.90
26053;DHT22;13826;51.186;4.450;2023-03-20T06:57:49;8.40;98.20
26053;DHT22;13826;51.186;4.450;2023-03-20T07:00:15;8.40;99.20
26053;DHT22;13826;51.186;4.450;2023-03-20T07:02:41;8.40;98.90
26053;DHT22;13826;51.186;4.450;2023-03-20T07:05:07;8.50;99.10
26053;DHT22;13826;51.186;4.450;2023-03-20T07:07:34;8.50;98.50
26053;DHT22;13826;51.186;4.450;2023-03-20T07:10:00;8.50;95.70
26053;DHT22;13826;51.186;4.450;2023-03-20T07:12:26;8.50;96.10
26053;DHT22;13826;51.186;4.450;2023-03-20T07:14:53;8.60;96.10
26053;DHT22;13826;51.186;4.450;2023-03-20T07:17:20;8.70;95.50
26053;DHT22;13826;51.186;4.450;2023-03-20T07:19:46;8.80;93.60
26053;DHT22;13826;51.186;4.450;2023-03-20T07:22:24;8.90;88.80
26053;DHT22;13826;51.186;4.450;2023-03-20T07:24:50;9.10;85.10
26053;DHT22;13826;51.186;4.450;2023-03-20T07:27:16;8.80;84.10
26053;DHT22;13826;51.186;4.450;2023-03-20T07:29:42;8.80;89.40
26053;DHT22;13826;51.186;4.450;2023-03-20T07:32:08;8.80;87.50
26053;DHT22;13826;51.186;4.450;2023-03-20T07:34:33;8.90;86.50
26053;DHT22;13826;51.186;4.450;2023-03-20T07:36:59;9.00;86.30
26053;DHT22;13826;51.186;4.450;2023-03-20T07:39:25;9.20;72.60
26053;DHT22;13826;51.186;4.450;2023-03-20T07:41:51;9.30;67.10
26053;DHT22;13826;51.186;4.450;2023-03-20T07:44:17;9.50;63.60
26053;DHT22;13826;51.186;4.450;2023-03-20T07:46:44;9.70;55.30
26053;DHT22;13826;51.186;4.450;2023-03-20T07:49:15;9.80;45.00
26053;DHT22;13826;51.186;4.450;2023-03-20T07:51:43;9.80;35.70
26053;DHT22;13826;51.186;4.450;2023-03-20T07:54:08;9.90;32.80
26053;DHT22;13826;51.186;4.450;2023-03-20T07:56:34;9.70;32.40
26053;DHT22;13826;51.186;4.450;2023-03-20T07:59:00;9.70;31.60
26053;DHT22;13826;51.186;4.450;2023-03-20T08:01:25;9.70;34.00
26053;DHT22;13826;51.186;4.450;2023-03-20T08:03:51;9.70;33.30
26053;DHT22;13826;51.186;4.450;2023-03-20T08:06:16;9.60;31.60
26053;DHT22;13826;51.186;4.450;2023-03-20T08:08:42;9.50;32.00
26053;DHT22;13826;51.186;4.450;2023-03-20T08:11:09;9.60;40.00
26053;DHT22;13826;51.186;4.450;2023-03-20T08:13:35;9.50;43.30
26053;DHT22;13826;51.186;4.450;2023-03-20T08:16:00;9.40;50.40
26053;DHT22;13826;51.186;4.450;2023-03-20T08:18:26;9.60;48.30
26053;DHT22;13826;51.186;4.450;2023-03-20T08:20:51;9.50;44.40
26053;DHT22;13826;51.186;4.450;2023-03-20T08:23:17;9.40;48.20
26053;DHT22;13826;51.186;4.450;2023-03-20T08:25:46;9.40;53.70
26053;DHT22;13826;51.186;4.450;2023-03-20T08:28:12;9.30;63.50
26053;DHT22;13826;51.186;4.450;2023-03-20T08:30:38;9.20;74.20
26053;DHT22;13826;51.186;4.450;2023-03-20T08:33:03;9.30;86.10
26053;DHT22;13826;51.186;4.450;2023-03-20T08:35:29;9.30;88.80
26053;DHT22;13826;51.186;4.450;2023-03-20T08:37:54;9.60;75.30
26053;DHT22;13826;51.186;4.450;2023-03-20T08:40:20;9.70;55.70
26053;DHT22;13826;51.186;4.450;2023-03-20T08:42:45;9.70;46.40
26053;DHT22;13826;51.186;4.450;2023-03-20T08:45:11;9.70;41.70
26053;DHT22;13826;51.186;4.450;2023-03-20T08:47:37;9.70;36.70
26053;DHT22;13826;51.186;4.450;2023-03-20T08:50:02;9.60;35.20
26053;DHT22;13826;51.186;4.450;2023-03-20T08:52:28;9.70;30.40
26053;DHT22;13826;51.186;4.450;2023-03-20T08:54:54;9.70;37.70
26053;DHT22;13826;51.186;4.450;2023-03-20T08:57:19;9.70;35.90
26053;DHT22;13826;51.186;4.450;2023-03-20T08:59:45;9.70;35.70
26053;DHT22;13826;51.186;4.450;2023-03-20T09:02:11;9.80;26.20
26053;DHT22;13826;51.186;4.450;2023-03-20T09:04:45;9.90;35.40
26053;DHT22;13826;51.186;4.450;2023-03-20T09:07:11;10.00;40.50
26053;DHT22;13826;51.186;4.450;2023-03-20T09:09:36;9.90;5.10
26053;DHT22;13826;51.186;4.450;2023-03-20T09:12:02;9.90;29.00
26053;DHT22;13826;51.186;4.450;2023-03-20T09:14:28;10.10;27.70
26053;DHT22;13826;51.186;4.450;2023-03-20T09:16:53;10.40;9.50
26053;DHT22;13826;51.186;4.450;2023-03-20T09:19:19;10.40;1.00
26053;DHT22;13826;51.186;4.450;2023-03-20T09:21:45;10.40;1.10
26053;DHT22;13826;51.186;4.450;2023-03-20T09:24:10;10.60;1.00
26053;DHT22;13826;51.186;4.450;2023-03-20T09:26:36;10.70;1.00
26053;DHT22;13826;51.186;4.450;2023-03-20T09:29:02;10.60;1.00
26053;DHT22;13826;51.186;4.450;2023-03-20T09:31:28;10.60;1.00
26053;DHT22;13826;51.186;4.450;2023-03-20T09:33:53;10.60;1.00
26053;DHT22;13826;51.186;4.450;2023-03-20T09:36:19;10.70;1.00
26053;DHT22;13826;51.186;4.450;2023-03-20T09:38:45;10.80;1.00
26053;DHT22;13826;51.186;4.450;2023-03-20T09:41:22;10.80;1.00
26053;DHT22;13826;51.186;4.450;2023-03-20T09:48:58;11.40;1.00
26053;DHT22;13826;51.186;4.450;2023-03-20T09:53:57;12.00;1.00
26053;DHT22;13826;51.186;4.450;2023-03-20T09:56:25;11.70;1.00
26053;DHT22;13826;51.186;4.450;2023-03-20T09:58:52;11.80;1.00
26053;DHT22;13826;51.186;4.450;2023-03-20T10:01:18;11.90;1.00
26053;DHT22;13826;51.186;4.450;2023-03-20T10:03:59;12.10;99.90
26053;DHT22;13826;51.186;4.450;2023-03-20T10:06:25;12.30;99.90
26053;DHT22;13826;51.186;4.450;2023-03-20T10:08:51;12.30;99.90
26053;DHT22;13826;51.186;4.450;2023-03-20T10:16:30;12.10;99.90
26053;DHT22;13826;51.186;4.450;2023-03-20T10:21:38;11.90;99.90
26053;DHT22;13826;51.186;4.450;2023-03-20T10:24:07;11.90;1.00
26053;DHT22;13826;51.186;4.450;2023-03-20T10:26:35;12.00;99.90
26053;DHT22;13826;51.186;4.450;2023-03-20T10:29:14;12.10;99.90
26053;DHT22;13826;51.186;4.450;2023-03-20T10:34:52;12.40;99.90
26053;DHT22;13826;51.186;4.450;2023-03-20T10:40:22;12.00;99.90
26053;DHT22;13826;51.186;4.450;2023-03-20T10:42:31;11.90;99.90
26053;DHT22;13826;51.186;4.450;2023-03-20T10:45:00;11.80;1.00
26053;DHT22;13826;51.186;4.450;2023-03-20T10:47:27;11.80;99.90
26053;DHT22;13826;51.186;4.450;2023-03-20T10:49:56;11.90;99.90
26053;DHT22;13826;51.186;4.450;2023-03-20T10:52:30;11.90;99.90
26053;DHT22;13826;51.186;4.450;2023-03-20T10:55:00;11.70;1.00
26053;DHT22;13826;51.186;4.450;2023-03-20T10:57:28;11.90;1.00
26053;DHT22;13826;51.186;4.450;2023-03-20T10:59:57;12.00;1.00
26053;DHT22;13826;51.186;4.450;2023-03-20T11:02:29;12.30;99.90
26053;DHT22;13826;51.186;4.450;2023-03-20T11:04:55;12.70;99.90
26053;DHT22;13826;51.186;4.450;2023-03-20T11:07:32;13.00;1.00
26053;DHT22;13826;51.186;4.450;2023-03-20T11:12:40;13.80;1.00
26053;DHT22;13826;51.186;4.450;2023-03-20T11:17:37;13.70;99.90
26053;DHT22;13826;51.186;4.450;2023-03-20T11:20:03;13.50;1.00
26053;DHT22;13826;51.186;4.450;2023-03-20T11:22:29;13.20;1.00
26053;DHT22;13826;51.186;4.450;2023-03-20T11:24:55;13.10;2.60
26053;DHT22;13826;51.186;4.450;2023-03-20T11:27:29;13.10;99.90
26053;DHT22;13826;51.186;4.450;2023-03-20T11:29:55;13.30;1.00
26053;DHT22;13826;51.186;4.450;2023-03-20T11:32:32;13.40;1.00
26053;DHT22;13826;51.186;4.450;2023-03-20T11:37:43;13.80;1.00
26053;DHT22;13826;51.186;4.450;2023-03-20T11:40:13;14.10;99.90
26053;DHT22;13826;51.186;4.450;2023-03-20T11:42:39;14.30;1.00
26053;DHT22;13826;51.186;4.450;2023-03-20T11:45:16;14.00;2.80
26053;DHT22;13826;51.186;4.450;2023-03-20T11:47:41;14.10;56.00
26053;DHT22;13826;51.186;4.450;2023-03-20T11:56:23;14.70;75.00
26053;DHT22;13826;51.186;4.450;2023-03-20T12:01:25;14.70;99.90
26053;DHT22;13826;51.186;4.450;2023-03-20T12:03:57;14.70;99.90
26053;DHT22;13826;51.186;4.450;2023-03-20T12:06:26;14.80;10.30
26053;DHT22;13826;51.186;4.450;2023-03-20T12:08:59;14.70;99.90
26053;DHT22;13826;51.186;4.450;2023-03-20T12:14:01;14.60;99.90
26053;DHT22;13826;51.186;4.450;2023-03-20T12:16:29;14.50;58.70
26053;DHT22;13826;51.186;4.450;2023-03-20T12:19:03;14.40;1.00
26053;DHT22;13826;51.186;4.450;2023-03-20T12:24:36;14.50;99.90
26053;DHT22;13826;51.186;4.450;2023-03-20T12:27:25;14.60;99.90
26053;DHT22;13826;51.186;4.450;2023-03-20T12:29:50;14.40;99.90
26053;DHT22;13826;51.186;4.450;2023-03-20T12:35:43;14.60;1.00
26053;DHT22;13826;51.186;4.450;2023-03-20T12:37:49;14.60;19.70
26053;DHT22;13826;51.186;4.450;2023-03-20T12:40:16;14.60;75.10
26053;DHT22;13826;51.186;4.450;2023-03-20T12:45:17;14.00;3.40
26053;DHT22;13826;51.186;4.450;2023-03-20T12:53:33;13.50;49.90
26053;DHT22;13826;51.186;4.450;2023-03-20T12:58:50;13.30;38.20
26053;DHT22;13826;51.186;4.450;2023-03-20T13:01:31;13.20;99.90
26053;DHT22;13826;51.186;4.450;2023-03-20T13:06:50;13.20;99.90
26053;DHT22;13826;51.186;4.450;2023-03-20T13:09:23;13.20;99.90
26053;DHT22;13826;51.186;4.450;2023-03-20T13:23:23;13.20;99.90
26053;DHT22;13826;51.186;4.450;2023-03-20T13:30:38;13.10;99.90
26053;DHT22;13826;51.186;4.450;2023-03-20T13:38:22;13.40;4.80
26053;DHT22;13826;51.186;4.450;2023-03-20T13:40:49;13.30;99.90
26053;DHT22;13826;51.186;4.450;2023-03-20T13:45:43;13.20;99.90
26053;DHT22;13826;51.186;4.450;2023-03-20T13:48:16;13.20;99.90
26053;DHT22;13826;51.186;4.450;2023-03-20T13:58:08;13.20;99.90
26053;DHT22;13826;51.186;4.450;2023-03-20T14:00:44;13.10;99.90
26053;DHT22;13826;51.186;4.450;2023-03-20T14:05:37;13.10;99.90
26053;DHT22;13826;51.186;4.450;2023-03-20T14:08:23;13.10;99.90
26053;DHT22;13826;51.186;4.450;2023-03-20T14:13:28;13.20;99.90
26053;DHT22;13826;51.186;4.450;2023-03-20T14:15:55;13.20;99.90
26053;DHT22;13826;51.186;4.450;2023-03-20T14:18:22;13.30;99.90
26053;DHT22;13826;51.186;4.450;2023-03-20T14:21:30;13.30;99.90
26053;DHT22;13826;51.186;4.450;2023-03-20T14:26:10;13.50;99.90
26053;DHT22;13826;51.186;4.450;2023-03-20T14:28:45;13.50;99.90
26053;DHT22;13826;51.186;4.450;2023-03-20T14:31:21;13.30;99.90
26053;DHT22;13826;51.186;4.450;2023-03-20T14:33:52;13.30;99.90
26053;DHT22;13826;51.186;4.450;2023-03-20T14:36:19;13.30;1.00
26053;DHT22;13826;51.186;4.450;2023-03-20T14:49:44;13.70;1.00
26053;DHT22;13826;51.186;4.450;2023-03-20T14:52:14;13.80;1.00
26053;DHT22;13826;51.186;4.450;2023-03-20T14:54:41;13.80;1.00
26053;DHT22;13826;51.186;4.450;2023-03-20T14:57:17;13.80;1.00
26053;DHT22;13826;51.186;4.450;2023-03-20T14:59:47;13.60;1.00
26053;DHT22;13826;51.186;4.450;2023-03-20T15:02:26;13.30;1.00
26053;DHT22;13826;51.186;4.450;2023-03-20T15:04:52;13.20;1.00
26053;DHT22;13826;51.186;4.450;2023-03-20T15:07:24;13.30;1.00
26053;DHT22;13826;51.186;4.450;2023-03-20T15:09:52;13.30;1.00
26053;DHT22;13826;51.186;4.450;2023-03-20T15:12:20;13.40;1.00
26053;DHT22;13826;51.186;4.450;2023-03-20T15:17:16;13.00;1.00
26053;DHT22;13826;51.186;4.450;2023-03-20T15:19:42;13.00;1.00
26053;DHT22;13826;51.186;4.450;2023-03-20T15:22:13;13.00;1.00
26053;DHT22;13826;51.186;4.450;2023-03-20T15:24:39;13.00;1.00
26053;DHT22;13826;51.186;4.450;2023-03-20T15:27:04;13.10;1.00
26053;DHT22;13826;51.186;4.450;2023-03-20T15:29:30;13.20;1.00
26053;DHT22;13826;51.186;4.450;2023-03-20T15:31:57;13.20;1.00
26053;DHT22;13826;51.186;4.450;2023-03-20T15:34:27;13.20;1.00
26053;DHT22;13826;51.186;4.450;2023-03-20T15:36:56;13.10;1.00
26053;DHT22;13826;51.186;4.450;2023-03-20T15:39:24;13.10;1.00
26053;DHT22;13826;51.186;4.450;2023-03-20T15:41:51;13.00;1.00
26053;DHT22;13826;51.186;4.450;2023-03-20T15:44:22;13.10;1.00
26053;DHT22;13826;51.186;4.450;2023-03-20T15:49:30;13.10;1.00
26053;DHT22;13826;51.186;4.450;2023-03-20T15:51:57;13.10;1.00
26053;DHT22;13826;51.186;4.450;2023-03-20T15:54:24;13.20;1.00
26053;DHT22;13826;51.186;4.450;2023-03-20T15:56:50;13.50;1.00
26053;DHT22;13826;51.186;4.450;2023-03-20T15:59:17;13.40;1.00
26053;DHT22;13826;51.186;4.450;2023-03-20T16:01:44;13.40;1.00
26053;DHT22;13826;51.186;4.450;2023-03-20T16:04:14;13.50;1.00
26053;DHT22;13826;51.186;4.450;2023-03-20T16:06:48;13.50;1.00
26053;DHT22;13826;51.186;4.450;2023-03-20T16:09:14;13.50;1.00
26053;DHT22;13826;51.186;4.450;2023-03-20T16:11:41;13.60;1.00
26053;DHT22;13826;51.186;4.450;2023-03-20T16:14:15;13.50;1.00
26053;DHT22;13826;51.186;4.450;2023-03-20T16:16:41;13.40;1.00
26053;DHT22;13826;51.186;4.450;2023-03-20T16:19:09;13.60;1.00
26053;DHT22;13826;51.186;4.450;2023-03-20T16:21:37;13.60;1.00
26053;DHT22;13826;51.186;4.450;2023-03-20T16:24:07;13.70;1.00
26053;DHT22;13826;51.186;4.450;2023-03-20T16:26:35;13.60;1.00
26053;DHT22;13826;51.186;4.450;2023-03-20T16:29:01;13.40;1.00
26053;DHT22;13826;51.186;4.450;2023-03-20T16:31:27;13.30;1.00
26053;DHT22;13826;51.186;4.450;2023-03-20T16:33:58;13.30;1.00
26053;DHT22;13826;51.186;4.450;2023-03-20T16:36:28;13.30;1.00
26053;DHT22;13826;51.186;4.450;2023-03-20T16:39:00;13.30;1.00
26053;DHT22;13826;51.186;4.450;2023-03-20T16:43:51;13.30;1.00
26053;DHT22;13826;51.186;4.450;2023-03-20T16:46:20;13.20;1.00
26053;DHT22;13826;51.186;4.450;2023-03-20T16:48:52;13.10;1.00
26053;DHT22;13826;51.186;4.450;2023-03-20T16:51:21;13.10;1.00
26053;DHT22;13826;51.186;4.450;2023-03-20T16:53:49;13.00;1.00
26053;DHT22;13826;51.186;4.450;2023-03-20T16:56:21;13.00;1.00
26053;DHT22;13826;51.186;4.450;2023-03-20T16:58:47;13.00;1.00
26053;DHT22;13826;51.186;4.450;2023-03-20T17:01:30;12.90;1.00
26053;DHT22;13826;51.186;4.450;2023-03-20T17:03:57;12.90;1.00
26053;DHT22;13826;51.186;4.450;2023-03-20T17:06:37;13.00;1.00
26053;DHT22;13826;51.186;4.450;2023-03-20T17:09:15;13.10;1.00
26053;DHT22;13826;51.186;4.450;2023-03-20T17:11:49;13.10;1.00
26053;DHT22;13826;51.186;4.450;2023-03-20T17:14:15;13.20;1.00
26053;DHT22;13826;51.186;4.450;2023-03-20T17:16:41;13.10;1.00
26053;DHT22;13826;51.186;4.450;2023-03-20T17:19:15;13.00;1.00
26053;DHT22;13826;51.186;4.450;2023-03-20T17:21:42;13.00;1.00
26053;DHT22;13826;51.186;4.450;2023-03-20T17:24:08;13.10;1.00
26053;DHT22;13826;51.186;4.450;2023-03-20T17:26:34;13.00;1.00
26053;DHT22;13826;51.186;4.450;2023-03-20T17:29:00;13.10;1.00
26053;DHT22;13826;51.186;4.450;2023-03-20T17:31:25;12.90;1.00
26053;DHT22;13826;51.186;4.450;2023-03-20T17:33:51;12.80;1.00
26053;DHT22;13826;51.186;4.450;2023-03-20T17:36:23;12.80;1.00
26053;DHT22;13826;51.186;4.450;2023-03-20T17:38:50;12.90;1.00
26053;DHT22;13826;51.186;4.450;2023-03-20T17:41:17;13.00;1.00
26053;DHT22;13826;51.186;4.450;2023-03-20T17:43:43;13.10;1.00
26053;DHT22;13826;51.186;4.450;2023-03-20T17:46:13;13.10;1.00
26053;DHT22;13826;51.186;4.450;2023-03-20T17:48:41;13.00;1.00
26053;DHT22;13826;51.186;4.450;2023-03-20T17:51:07;12.90;1.00
26053;DHT22;13826;51.186;4.450;2023-03-20T17:53:33;12.80;1.00
26053;DHT22;13826;51.186;4.450;2023-03-20T17:55:58;12.70;1.00
26053;DHT22;13826;51.186;4.450;2023-03-20T17:58:24;12.70;1.00
26053;DHT22;13826;51.186;4.450;2023-03-20T18:00:50;12.70;1.00
26053;DHT22;13826;51.186;4.450;2023-03-20T18:03:16;12.80;1.00
26053;DHT22;13826;51.186;4.450;2023-03-20T18:05:43;12.80;1.00
26053;DHT22;13826;51.186;4.450;2023-03-20T18:08:12;12.80;1.00
26053;DHT22;13826;51.186;4.450;2023-03-20T18:10:38;12.70;1.00
26053;DHT22;13826;51.186;4.450;2023-03-20T18:13:04;12.80;1.00
26053;DHT22;13826;51.186;4.450;2023-03-20T18:15:29;12.90;1.00
26053;DHT22;13826;51.186;4.450;2023-03-20T18:17:55;12.90;1.00
26053;DHT22;13826;51.186;4.450;2023-03-20T18:20:28;12.90;1.00